< < Back
Terminal Aerodrome Forecast


Current Version              Previous Versions:   1  2  3  4  5  6  7  8  9  

Terminal Aerodrome Forecast

168
FTUS44 KMRX 272320
TAFTYS
TAF
KTYS 272320Z 2800/2824 05007KT P6SM SCT060
     FM280100 02003KT P6SM FEW060
     FM281400 06004KT P6SM SCT050=

Latest METAR

417
SAUS80 KWBC 281900
MTRTYS
METAR KTYS 281853Z 03005KT 10SM FEW042 31/16 A3013 RMK AO2 SLP191
T03110156 $


USA.gov is the U.S. government's official web portal to all federal, state and local government web resources and services.